Latest Coastal Weather Observations for Townsville

IDQ60701

Issued at 12:21 pm EST Thursday 28 May 2015 (issued every 10 minutes, with the page automatically refreshed every 10 minutes)

About coastal observations | Map of coastal stations | Coastal observations for QLD | Marine services | Other Formats
Station Details ID: 032040 Name: TOWNSVILLE AERO Lat: -19.25 Lon: 146.77 Height: 4.34 m
Data from the previous 72 hours. | See also: Recent months at Townsville
Date/Time
EST
Temp

°C
Wind Pressure Rain
since 9am
mm
Weather Cloud Vis
km
Sea
Height
m
Swell
Dir
 
Speed
knots
Gust
knots
hPa Trend Height
m
Period
s
Dir
28/12:00pm 27.8 ENE 15 19 1018.7 F 0.0 Haze Mostly clear 30 - - - -
28/11:30am 27.1 ESE 13 18 1019.1 - 0.0 - Mostly clear 10 - - - -
28/11:00am 27.0 ESE 13 19 1019.5 - 0.0 - Mostly clear 10 - - - -
28/10:30am 26.2 E 11 20 1020.0 - 0.0 - Mostly clear 10 - - - -
28/10:00am 26.2 ENE 9 11 1020.2 - 0.0 - Mostly clear 10 - - - -
28/09:30am 24.9 SE 5 6 1020.4 - 0.0 - Mostly clear 10 - - - -
28/08:30am 22.4 SW 1 5 1020.4 - 0.0 - Mostly clear 10 - - - -
28/08:00am 20.4 WNW 1 5 1020.1 - 0.0 - Mostly clear 10 - - - -
28/07:30am 18.4 CALM 0 0 1019.7 - 0.0 - Mostly clear 10 - - - -
28/07:00am 18.2 W 3 4 1019.5 - 0.0 - Mostly clear 10 - - - -
28/06:30am 17.5 W 3 5 1019.5 - 0.0 - Mostly clear 10 - - - -
28/06:00am 17.7 SW 4 5 1018.7 R 0.0 Haze Mostly clear 25 - - - -
28/05:30am 19.0 WSW 6 7 1018.5 - 0.0 - - 10 - - - -
28/05:00am 18.6 W 5 7 1018.3 - 0.0 - - 10 - - - -
28/04:30am 20.2 SSE 6 8 1018.3 - 0.0 - - 10 - - - -
28/04:00am 21.1 SSE 7 9 1018.3 - 0.0 - - 10 - - - -
28/03:30am 21.5 SSE 8 10 1018.3 - 0.0 - - 10 - - - -
28/03:00am 21.7 SSE 8 10 1018.2 - 0.0 - Mostly clear 10 - - - -
28/02:30am 22.1 SE 8 10 1018.4 - 0.0 - Partly cloudy 10 - - - -
28/02:00am 22.0 SE 7 8 1018.4 - 0.0 - Partly cloudy 10 - - - -
28/01:30am 22.0 SE 7 9 1018.6 - 0.0 - Partly cloudy 10 - - - -
28/01:00am 22.4 SE 8 10 1018.7 - 0.0 - Partly cloudy 10 - - - -
28/12:30am 22.4 SE 9 12 1018.7 - 0.0 - Partly cloudy 10 - - - -
28/12:00am 22.3 SE 7 9 1018.6 - 0.0 - Partly cloudy 10 - - - -
 
Date/Time
EST
Temp

°C
Wind Pressure Rain
since 9am
mm
Weather Cloud Vis
km
Sea
Height
m
Swell
Dir
 
Speed
knots
Gust
knots
hPa Trend Height
m
Period
s
Dir
27/11:30pm 22.4 SE 9 13 1018.9 - 0.0 - Partly cloudy 10 - - - -
27/11:00pm 22.4 SSE 9 11 1019.3 - 0.0 - - 10 - - - -
27/10:30pm 22.5 ESE 8 11 1019.3 - 0.0 - - 10 - - - -
27/10:00pm 22.5 SE 7 9 1019.4 - 0.0 - - 10 - - - -
27/09:30pm 22.9 ESE 10 14 1019.4 - 0.0 - - 10 - - - -
27/09:00pm 23.3 E 12 15 1019.4 - 0.0 - - 10 - - - -
27/08:30pm 23.3 ESE 10 14 1019.4 - 0.0 - - 10 - - - -
27/08:00pm 23.5 ESE 11 16 1019.2 - 0.0 - Partly cloudy 10 - - - -
27/07:30pm 23.3 ESE 10 13 1018.8 - 0.0 - - 10 - - - -
27/07:00pm 23.5 E 9 12 1018.4 - 0.0 - Partly cloudy 10 - - - -
27/06:30pm 23.6 E 11 15 1018.2 - 0.0 - - 10 - - - -
27/06:00pm 23.7 E 11 15 1017.7 - 0.0 - - 10 - - - -
27/05:30pm 24.1 E 15 19 1017.5 - 0.0 - Mostly clear 10 - - - -
27/05:00pm 24.9 E 14 20 1017.3 - 0.0 - Mostly clear 10 - - - -
27/04:30pm 25.5 E 17 20 1017.0 - 0.0 - Mostly clear 10 - - - -
27/04:00pm 25.6 ENE 18 23 1016.8 - 0.0 - Mostly clear 10 - - - -
27/03:30pm 26.2 E 17 21 1016.8 - 0.0 - Mostly clear 10 - - - -
27/03:00pm 26.7 ENE 17 20 1017.0 R 0.0 Haze Partly cloudy 35 - - - -
27/02:30pm 27.3 ENE 15 19 1017.1 - 0.0 - Partly cloudy 10 - - - -
27/02:00pm 27.4 ENE 16 20 1017.3 - 0.0 - Partly cloudy 10 - - - -
27/01:30pm 27.7 E 17 22 1017.4 - 0.0 - Partly cloudy 10 - - - -
27/01:00pm 27.9 ENE 17 21 1017.9 - 0.0 - Partly cloudy 10 - - - -
27/12:30pm 27.6 E 11 16 1018.5 - 0.0 - Partly cloudy 10 - - - -
27/12:00pm 26.9 ESE 13 18 1018.9 F 0.0 Haze Mostly cloudy 25 - - - -
27/11:30am 26.2 SE 8 13 1019.6 - 0.0 - Partly cloudy 10 - - - -
27/11:00am 25.3 SE 5 9 1020.1 - 0.0 - Mostly clear 10 - - - -
27/10:30am 24.1 S 8 12 1020.5 - 0.0 - Mostly clear 10 - - - -
27/10:00am 24.0 SSE 9 11 1020.7 - 0.0 - Mostly clear 10 - - - -
27/09:30am 23.9 SSE 8 11 1020.8 - 0.0 - Mostly clear 10 - - - -
27/09:00am 23.1 SE 9 12 1020.5 F 0.0 Distant precip. Mostly cloudy 35 - - - -
27/08:30am 23.2 SSE 10 14 1020.5 - 0.0 - Mostly clear 10 - - - -
27/08:00am 23.0 S 6 7 1020.3 - 0.0 - Mostly clear 10 - - - -
27/07:30am 20.9 SSW 5 7 1020.1 - 0.0 - Mostly clear 10 - - - -
27/07:00am 19.3 SSW 3 5 1019.9 - 0.0 - Mostly clear 10 - - - -
27/06:30am 19.4 S 5 6 1019.5 - 0.0 - Mostly clear 10 - - - -
27/06:00am 19.2 S 5 6 1019.1 F 0.0 Fine Mostly cloudy 45 - - - -
27/05:30am 19.8 S 5 6 1018.9 - 0.0 - Partly cloudy 10 - - - -
27/05:00am 20.4 S 5 7 1019.1 - 0.0 - Cloudy 10 - - - -
27/04:30am 20.4 SSW 5 7 1019.1 - 0.0 - Partly cloudy 10 - - - -
27/04:00am 19.8 SW 3 4 1019.0 - 0.0 - Partly cloudy 10 - - - -
27/03:30am 20.5 S 5 5 1018.9 - 0.0 - Partly cloudy 10 - - - -
27/03:00am 20.9 SW 5 7 1019.0 - 0.0 - Cloudy 10 - - - -
27/02:30am 20.6 W 3 4 1019.3 - 0.0 - Partly cloudy 10 - - - -
27/02:00am 20.7 WSW 4 5 1019.6 - 0.0 - Cloudy 10 - - - -
27/01:30am 19.9 W 5 6 1019.8 - 0.0 - Partly cloudy 10 - - - -
27/01:00am 19.4 W 4 6 1020.1 - 0.0 - Partly cloudy 10 - - - -
27/12:30am 20.8 SE 4 6 1020.1 - 0.0 - - 10 - - - -
27/12:00am 21.5 ESE 7 9 1020.1 - 0.0 - - 10 - - - -
 
Date/Time
EST
Temp

°C
Wind Pressure Rain
since 9am
mm
Weather Cloud Vis
km
Sea
Height
m
Swell
Dir
 
Speed
knots
Gust
knots
hPa Trend Height
m
Period
s
Dir
26/11:30pm 21.3 SE 7 9 1020.3 - 0.0 - - 10 - - - -
26/11:00pm 21.6 SE 7 9 1020.5 - 0.0 - - 10 - - - -
26/10:30pm 21.5 SE 7 8 1020.6 - 0.0 - - 10 - - - -
26/10:00pm 22.3 ESE 9 12 1020.6 - 0.0 - - 10 - - - -
26/09:30pm 22.9 ESE 11 17 1020.5 - 0.0 - - 10 - - - -
26/09:00pm 22.6 ESE 11 14 1020.4 - 0.0 - Mostly clear 10 - - - -
26/08:30pm 23.2 ESE 10 15 1020.5 - 0.0 - Partly cloudy 10 - - - -
26/08:00pm 22.9 ESE 10 14 1020.5 - 0.0 - Partly cloudy 10 - - - -
26/07:30pm 23.0 ESE 13 18 1020.3 - 0.0 - - 10 - - - -
26/07:00pm 23.3 ESE 15 19 1020.0 - 0.0 - - 10 - - - -
26/06:30pm 23.3 ESE 15 19 1019.8 - 0.0 - - 10 - - - -
26/06:00pm 23.5 E 17 21 1019.3 - 0.0 - Mostly clear 10 - - - -
26/05:30pm 23.7 E 18 24 1019.2 - 0.0 - Mostly clear 10 - - - -
26/05:00pm 24.3 E 17 22 1018.9 - 0.0 - Mostly clear 10 - - - -
26/04:30pm 25.1 E 17 22 1018.7 - 0.0 - Mostly clear 10 - - - -
26/04:00pm 25.8 E 17 21 1018.6 - 0.0 - Mostly clear 10 - - - -
26/03:30pm 26.2 E 20 25 1018.7 - 0.0 - Mostly clear 10 - - - -
26/03:00pm 26.4 E 18 22 1018.8 F 0.0 Haze Partly cloudy 40 - - - -
26/02:30pm 27.4 E 18 23 1018.9 - 0.0 - Mostly clear 10 - - - -
26/02:00pm 27.0 E 19 24 1019.1 - 0.0 - Mostly clear 10 - - - -
26/01:30pm 27.2 E 16 21 1019.5 - 0.0 - Mostly clear 10 - - - -
26/01:00pm 27.4 E 18 24 1020.1 - 0.0 - Partly cloudy 10 - - - -
26/12:30pm 27.1 E 17 22 1020.8 - 0.0 - Partly cloudy 10 - - - -
26/12:00pm 27.7 ESE 15 19 1021.2 F 0.0 Haze Partly cloudy 30 - - - -
26/11:30am 26.8 ESE 13 21 1021.8 - 0.0 - Partly cloudy 10 - - - -
26/11:00am 26.4 E 15 21 1022.1 - 0.0 - Mostly clear 10 - - - -
26/10:30am 26.4 ESE 17 21 1022.5 - 0.0 - Mostly clear 10 - - - -
26/10:06am 26.3 E 20 24 1022.5 - 0.0 - Mostly clear 10 - - - -
26/10:00am 26.1 SE 12 17 1022.6 - 0.0 - Mostly clear 10 - - - -
26/09:30am 24.9 SE 9 14 1022.8 - 0.0 - Mostly clear 10 - - - -
26/09:00am 24.5 SE 8 13 1022.8 F 0.0 Haze Partly cloudy 25 - - - -
26/08:30am 22.7 S 7 8 1022.6 - 0.0 - Mostly clear 10 - - - -
26/08:00am 21.5 SSW 7 9 1022.6 - 0.0 - Mostly clear 10 - - - -
26/07:30am 19.9 SSW 6 7 1022.5 - 0.0 - Mostly clear 10 - - - -
26/07:00am 18.5 SSW 6 7 1022.2 - 0.0 - Mostly clear 10 - - - -
26/06:30am 17.3 SW 3 4 1022.1 - 0.0 - Mostly clear 10 - - - -
26/06:00am 18.9 CALM 0 0 1021.8 F 0.0 Haze Mostly clear 30 - - - -
26/05:30am 17.4 W 3 4 1021.6 - 0.0 - - 10 - - - -
26/05:00am 17.7 SSW 4 5 1021.4 - 0.0 - - 10 - - - -
26/04:30am 18.1 SW 4 5 1021.5 - 0.0 - - 10 - - - -
26/04:00am 18.6 S 5 8 1021.7 - 0.0 - - 10 - - - -
26/03:30am 18.4 SSW 7 8 1021.8 - 0.0 - Partly cloudy 10 - - - -
26/03:00am 17.9 W 6 7 1021.8 - 0.0 - - 10 - - - -
26/02:30am 17.7 W 6 7 1022.0 - 0.0 - - 10 - - - -
26/02:00am 17.0 SW 4 6 1022.0 - 0.0 - - 10 - - - -
26/01:30am 17.7 CALM 0 0 1022.1 - 0.0 - - 10 - - - -
26/01:00am 17.9 SSE 3 6 1022.4 - 0.0 - - 10 - - - -
26/12:30am 19.9 SE 6 6 1022.4 - 0.0 - - 10 - - - -
26/12:00am 20.0 ESE 6 7 1022.4 - 0.0 - - 10 - - - -
 
Date/Time
EST
Temp

°C
Wind Pressure Rain
since 9am
mm
Weather Cloud Vis
km
Sea
Height
m
Swell
Dir
 
Speed
knots
Gust
knots
hPa Trend Height
m
Period
s
Dir
25/11:30pm 20.3 SE 6 7 1022.7 - 0.0 - - 10 - - - -
25/11:00pm 20.8 SE 6 8 1022.9 - 0.0 - - 10 - - - -
25/10:30pm 21.6 SE 8 10 1023.3 - 0.0 - - 10 - - - -
25/10:00pm 21.9 SE 7 9 1023.1 - 0.0 - - 10 - - - -
25/09:30pm 22.2 SE 8 10 1022.9 - 0.0 - - 10 - - - -
25/09:00pm 22.3 ESE 10 14 1022.6 - 0.0 - - 10 - - - -
25/08:30pm 22.7 SSE 9 14 1022.4 - 0.0 - - 10 - - - -
25/08:00pm 23.0 ESE 10 14 1022.2 - 0.0 - - 10 - - - -
25/07:30pm 23.2 ESE 11 14 1021.9 - 0.0 - Partly cloudy 10 - - - -
25/07:00pm 23.6 ESE 9 13 1021.6 - 0.0 - Cloudy 10 - - - -
25/06:30pm 24.1 ESE 12 17 1021.3 - 0.0 - Cloudy 10 - - - -
25/06:00pm 24.3 ESE 16 19 1021.1 - 0.0 - Cloudy 10 - - - -
25/05:30pm 24.5 E 15 19 1021.0 - 0.0 - Mostly clear 10 - - - -
25/05:00pm 24.7 E 14 19 1021.0 - 0.0 - Mostly clear 10 - - - -
25/04:30pm 25.2 E 14 21 1020.9 - 0.0 - Mostly clear 10 - - - -
25/04:00pm 26.0 E 15 21 1020.7 - 0.0 - Mostly clear 10 - - - -
25/03:30pm 25.8 E 16 22 1020.6 - 0.0 - Mostly clear 10 - - - -
25/03:00pm 25.9 E 17 22 1020.6 R 0.0 Distant precip. Mostly cloudy 20 - - - -
25/02:30pm 26.2 E 19 25 1020.8 - 0.0 - Mostly clear 10 - - - -
25/02:00pm 26.5 E 19 25 1021.0 - 0.0 - Mostly clear 10 - - - -
25/01:30pm 27.6 ENE 20 26 1021.2 - 0.0 - Mostly clear 10 - - - -
25/01:12pm 27.8 E 19 29 1021.5 - 0.0 - Mostly clear 10 - - - -
25/01:00pm 27.4 E 20 26 1021.6 - 0.0 - Mostly clear 10 - - - -
25/12:30pm 25.9 E 18 27 1022.3 - 0.0 - Mostly clear 10 - - - -
25/12:27pm 25.9 E 17 27 1022.3 - 0.0 - Mostly clear 10 - - - -

Other Formats:

Comma delimited format used in spreadsheet applications
http://www.bom.gov.au/fwo/IDQ60701/IDQ60701.94294.axf

JavaScript Object Notation format (JSON) in row-major order
http://www.bom.gov.au/fwo/IDQ60701/IDQ60701.94294.json